sensor_id;sensor_type;location;lat;lon;timestamp;temperature;humidity
14409;DHT22;7289;50.706;4.992;2023-03-01T00:01:35;-2.30;99.90
14409;DHT22;7289;50.706;4.992;2023-03-01T00:04:03;-2.30;99.90
14409;DHT22;7289;50.706;4.992;2023-03-01T00:06:32;-2.30;99.90
14409;DHT22;7289;50.706;4.992;2023-03-01T00:09:00;-2.40;99.90
14409;DHT22;7289;50.706;4.992;2023-03-01T00:11:30;-2.40;99.90
14409;DHT22;7289;50.706;4.992;2023-03-01T00:14:01;-2.40;99.90
14409;DHT22;7289;50.706;4.992;2023-03-01T00:16:34;-2.30;99.90
14409;DHT22;7289;50.706;4.992;2023-03-01T00:19:02;-2.50;99.90
14409;DHT22;7289;50.706;4.992;2023-03-01T00:21:31;-2.60;99.90
14409;DHT22;7289;50.706;4.992;2023-03-01T00:24:00;-2.50;99.90
14409;DHT22;7289;50.706;4.992;2023-03-01T00:26:29;-2.60;99.90
14409;DHT22;7289;50.706;4.992;2023-03-01T00:29:00;-2.60;99.90
14409;DHT22;7289;50.706;4.992;2023-03-01T00:31:30;-2.70;99.90
14409;DHT22;7289;50.706;4.992;2023-03-01T00:34:00;-2.70;99.90
14409;DHT22;7289;50.706;4.992;2023-03-01T00:36:30;-2.70;99.90
14409;DHT22;7289;50.706;4.992;2023-03-01T00:39:01;-2.80;99.90
14409;DHT22;7289;50.706;4.992;2023-03-01T00:41:30;-2.80;99.90
14409;DHT22;7289;50.706;4.992;2023-03-01T00:43:59;-2.80;99.90
14409;DHT22;7289;50.706;4.992;2023-03-01T00:46:28;-2.90;99.90
14409;DHT22;7289;50.706;4.992;2023-03-01T00:48:58;-2.90;99.90
14409;DHT22;7289;50.706;4.992;2023-03-01T00:51:29;-2.90;99.90
14409;DHT22;7289;50.706;4.992;2023-03-01T00:54:00;-3.00;99.90
14409;DHT22;7289;50.706;4.992;2023-03-01T00:56:29;-3.00;99.90
14409;DHT22;7289;50.706;4.992;2023-03-01T00:58:59;-3.00;99.90
14409;DHT22;7289;50.706;4.992;2023-03-01T01:01:29;-3.10;99.90
14409;DHT22;7289;50.706;4.992;2023-03-01T01:04:00;-3.10;99.90
14409;DHT22;7289;50.706;4.992;2023-03-01T01:06:32;-3.10;99.90
14409;DHT22;7289;50.706;4.992;2023-03-01T01:09:02;-3.20;99.90
14409;DHT22;7289;50.706;4.992;2023-03-01T01:11:31;-3.20;99.90
14409;DHT22;7289;50.706;4.992;2023-03-01T01:14:01;-3.20;99.90
14409;DHT22;7289;50.706;4.992;2023-03-01T01:16:30;-3.30;99.90
14409;DHT22;7289;50.706;4.992;2023-03-01T01:18:59;-3.30;99.90
14409;DHT22;7289;50.706;4.992;2023-03-01T01:21:27;-3.40;99.90
14409;DHT22;7289;50.706;4.992;2023-03-01T01:23:57;-3.40;99.90
14409;DHT22;7289;50.706;4.992;2023-03-01T01:26:27;-3.30;99.90
14409;DHT22;7289;50.706;4.992;2023-03-01T01:28:57;-3.40;99.90
14409;DHT22;7289;50.706;4.992;2023-03-01T01:31:27;-3.50;99.90
14409;DHT22;7289;50.706;4.992;2023-03-01T01:33:57;-3.40;99.90
14409;DHT22;7289;50.706;4.992;2023-03-01T01:36:27;-3.50;99.90
14409;DHT22;7289;50.706;4.992;2023-03-01T01:38:56;-3.50;99.90
14409;DHT22;7289;50.706;4.992;2023-03-01T01:41:26;-3.60;99.90
14409;DHT22;7289;50.706;4.992;2023-03-01T01:44:16;-3.60;99.90
14409;DHT22;7289;50.706;4.992;2023-03-01T01:46:50;-3.70;99.90
14409;DHT22;7289;50.706;4.992;2023-03-01T01:49:28;-3.70;99.90
14409;DHT22;7289;50.706;4.992;2023-03-01T01:52:03;-3.70;99.90
14409;DHT22;7289;50.706;4.992;2023-03-01T01:54:39;-3.70;99.90
14409;DHT22;7289;50.706;4.992;2023-03-01T01:57:11;-3.70;99.90
14409;DHT22;7289;50.706;4.992;2023-03-01T01:59:42;-3.70;99.90
14409;DHT22;7289;50.706;4.992;2023-03-01T02:02:13;-3.70;99.90
14409;DHT22;7289;50.706;4.992;2023-03-01T02:04:42;-3.70;99.90
14409;DHT22;7289;50.706;4.992;2023-03-01T02:07:15;-3.70;99.90
14409;DHT22;7289;50.706;4.992;2023-03-01T02:09:46;-3.70;99.90
14409;DHT22;7289;50.706;4.992;2023-03-01T02:12:17;-3.70;99.90
14409;DHT22;7289;50.706;4.992;2023-03-01T02:14:46;-3.70;99.90
14409;DHT22;7289;50.706;4.992;2023-03-01T02:17:17;-3.80;99.90
14409;DHT22;7289;50.706;4.992;2023-03-01T02:19:55;-3.80;99.90
14409;DHT22;7289;50.706;4.992;2023-03-01T02:22:29;-3.80;99.90
14409;DHT22;7289;50.706;4.992;2023-03-01T02:25:06;-3.80;99.90
14409;DHT22;7289;50.706;4.992;2023-03-01T02:27:47;-3.80;99.90
14409;DHT22;7289;50.706;4.992;2023-03-01T02:30:19;-3.90;99.90
14409;DHT22;7289;50.706;4.992;2023-03-01T02:32:49;-3.90;99.90
14409;DHT22;7289;50.706;4.992;2023-03-01T02:35:18;-3.90;99.90
14409;DHT22;7289;50.706;4.992;2023-03-01T02:37:48;-3.90;99.90
14409;DHT22;7289;50.706;4.992;2023-03-01T02:40:17;-4.00;99.90
14409;DHT22;7289;50.706;4.992;2023-03-01T02:42:54;-4.00;99.90
14409;DHT22;7289;50.706;4.992;2023-03-01T02:45:26;-4.00;99.90
14409;DHT22;7289;50.706;4.992;2023-03-01T02:47:55;-4.00;99.90
14409;DHT22;7289;50.706;4.992;2023-03-01T02:50:50;-4.10;99.90
14409;DHT22;7289;50.706;4.992;2023-03-01T02:53:25;-4.00;99.90
14409;DHT22;7289;50.706;4.992;2023-03-01T02:55:55;-4.00;99.90
14409;DHT22;7289;50.706;4.992;2023-03-01T02:58:24;-4.10;99.90
14409;DHT22;7289;50.706;4.992;2023-03-01T03:00:55;-4.10;99.90
14409;DHT22;7289;50.706;4.992;2023-03-01T03:03:25;-4.10;99.90
14409;DHT22;7289;50.706;4.992;2023-03-01T03:05:54;-4.20;99.90
14409;DHT22;7289;50.706;4.992;2023-03-01T03:08:22;-4.10;99.90
14409;DHT22;7289;50.706;4.992;2023-03-01T03:10:52;-4.20;99.90
14409;DHT22;7289;50.706;4.992;2023-03-01T03:13:21;-4.20;99.90
14409;DHT22;7289;50.706;4.992;2023-03-01T03:15:57;-4.20;99.90
14409;DHT22;7289;50.706;4.992;2023-03-01T03:18:26;-4.20;99.90
14409;DHT22;7289;50.706;4.992;2023-03-01T03:20:54;-4.20;99.90
14409;DHT22;7289;50.706;4.992;2023-03-01T03:23:23;-4.20;99.90
14409;DHT22;7289;50.706;4.992;2023-03-01T03:25:51;-4.20;99.90
14409;DHT22;7289;50.706;4.992;2023-03-01T03:28:20;-4.20;99.90
14409;DHT22;7289;50.706;4.992;2023-03-01T03:30:48;-4.30;99.90
14409;DHT22;7289;50.706;4.992;2023-03-01T03:33:18;-4.30;99.90
14409;DHT22;7289;50.706;4.992;2023-03-01T03:35:48;-4.40;99.90
14409;DHT22;7289;50.706;4.992;2023-03-01T03:38:19;-4.30;99.90
14409;DHT22;7289;50.706;4.992;2023-03-01T03:40:50;-4.40;99.90
14409;DHT22;7289;50.706;4.992;2023-03-01T03:43:21;-4.40;99.90
14409;DHT22;7289;50.706;4.992;2023-03-01T03:45:50;-4.40;99.90
14409;DHT22;7289;50.706;4.992;2023-03-01T03:48:20;-4.50;99.90
14409;DHT22;7289;50.706;4.992;2023-03-01T03:50:51;-4.50;99.90
14409;DHT22;7289;50.706;4.992;2023-03-01T03:53:20;-4.60;99.90
14409;DHT22;7289;50.706;4.992;2023-03-01T03:55:49;-4.60;99.90
14409;DHT22;7289;50.706;4.992;2023-03-01T03:58:19;-4.60;99.90
14409;DHT22;7289;50.706;4.992;2023-03-01T04:00:49;-4.70;99.90
14409;DHT22;7289;50.706;4.992;2023-03-01T04:03:20;-4.70;99.90
14409;DHT22;7289;50.706;4.992;2023-03-01T04:05:49;-4.70;99.90
14409;DHT22;7289;50.706;4.992;2023-03-01T04:08:19;-4.70;99.90
14409;DHT22;7289;50.706;4.992;2023-03-01T04:10:49;-4.70;99.90
14409;DHT22;7289;50.706;4.992;2023-03-01T04:13:20;-4.70;99.90
14409;DHT22;7289;50.706;4.992;2023-03-01T04:15:49;-4.70;99.90
14409;DHT22;7289;50.706;4.992;2023-03-01T04:18:20;-4.70;99.90
14409;DHT22;7289;50.706;4.992;2023-03-01T04:20:49;-4.80;99.90
14409;DHT22;7289;50.706;4.992;2023-03-01T04:23:19;-4.80;99.90
14409;DHT22;7289;50.706;4.992;2023-03-01T04:25:50;-4.90;99.90
14409;DHT22;7289;50.706;4.992;2023-03-01T04:28:21;-4.60;99.90
14409;DHT22;7289;50.706;4.992;2023-03-01T04:30:52;-4.70;99.90
14409;DHT22;7289;50.706;4.992;2023-03-01T04:33:23;-4.70;99.90
14409;DHT22;7289;50.706;4.992;2023-03-01T04:35:51;-4.80;99.90
14409;DHT22;7289;50.706;4.992;2023-03-01T04:38:20;-4.80;99.90
14409;DHT22;7289;50.706;4.992;2023-03-01T04:40:49;-4.80;99.90
14409;DHT22;7289;50.706;4.992;2023-03-01T04:43:17;-4.80;99.90
14409;DHT22;7289;50.706;4.992;2023-03-01T04:45:45;-4.90;99.90
14409;DHT22;7289;50.706;4.992;2023-03-01T04:48:14;-4.80;99.90
14409;DHT22;7289;50.706;4.992;2023-03-01T04:50:43;-4.90;99.90
14409;DHT22;7289;50.706;4.992;2023-03-01T04:53:12;-4.90;99.90
14409;DHT22;7289;50.706;4.992;2023-03-01T04:55:40;-4.90;99.90
14409;DHT22;7289;50.706;4.992;2023-03-01T04:58:08;-4.90;99.90
14409;DHT22;7289;50.706;4.992;2023-03-01T05:00:36;-4.90;99.90
14409;DHT22;7289;50.706;4.992;2023-03-01T05:03:05;-5.00;99.90
14409;DHT22;7289;50.706;4.992;2023-03-01T05:05:34;-5.00;99.90
14409;DHT22;7289;50.706;4.992;2023-03-01T05:08:06;-5.00;99.90
14409;DHT22;7289;50.706;4.992;2023-03-01T05:10:36;-5.00;99.90
14409;DHT22;7289;50.706;4.992;2023-03-01T05:13:05;-5.00;99.90
14409;DHT22;7289;50.706;4.992;2023-03-01T05:15:34;-5.00;99.90
14409;DHT22;7289;50.706;4.992;2023-03-01T05:18:03;-5.00;99.90
14409;DHT22;7289;50.706;4.992;2023-03-01T05:20:38;-5.00;99.90
14409;DHT22;7289;50.706;4.992;2023-03-01T05:23:07;-5.10;99.90
14409;DHT22;7289;50.706;4.992;2023-03-01T05:25:36;-5.10;99.90
14409;DHT22;7289;50.706;4.992;2023-03-01T05:28:10;-5.10;99.90
14409;DHT22;7289;50.706;4.992;2023-03-01T05:30:39;-5.20;99.90
14409;DHT22;7289;50.706;4.992;2023-03-01T05:33:08;-5.20;99.90
14409;DHT22;7289;50.706;4.992;2023-03-01T05:35:41;-5.20;99.90
14409;DHT22;7289;50.706;4.992;2023-03-01T05:38:12;-5.20;99.90
14409;DHT22;7289;50.706;4.992;2023-03-01T05:40:42;-5.20;99.90
14409;DHT22;7289;50.706;4.992;2023-03-01T05:43:12;-5.20;99.90
14409;DHT22;7289;50.706;4.992;2023-03-01T05:45:41;-5.20;99.90
14409;DHT22;7289;50.706;4.992;2023-03-01T05:48:10;-5.20;99.90
14409;DHT22;7289;50.706;4.992;2023-03-01T05:50:41;-5.30;99.90
14409;DHT22;7289;50.706;4.992;2023-03-01T05:53:12;-5.30;99.90
14409;DHT22;7289;50.706;4.992;2023-03-01T05:55:42;-5.30;99.90
14409;DHT22;7289;50.706;4.992;2023-03-01T05:58:12;-5.20;99.90
14409;DHT22;7289;50.706;4.992;2023-03-01T06:00:43;-5.30;99.90
14409;DHT22;7289;50.706;4.992;2023-03-01T06:03:13;-5.30;99.90
14409;DHT22;7289;50.706;4.992;2023-03-01T06:05:41;-5.30;99.90
14409;DHT22;7289;50.706;4.992;2023-03-01T06:08:12;-5.30;99.90
14409;DHT22;7289;50.706;4.992;2023-03-01T06:10:40;-5.30;99.90
14409;DHT22;7289;50.706;4.992;2023-03-01T06:13:09;-5.30;99.90
14409;DHT22;7289;50.706;4.992;2023-03-01T06:15:37;-5.40;99.90
14409;DHT22;7289;50.706;4.992;2023-03-01T06:18:05;-5.40;99.90
14409;DHT22;7289;50.706;4.992;2023-03-01T06:20:34;-5.40;99.90
14409;DHT22;7289;50.706;4.992;2023-03-01T06:23:02;-5.30;99.90
14409;DHT22;7289;50.706;4.992;2023-03-01T06:25:32;-5.40;99.90
14409;DHT22;7289;50.706;4.992;2023-03-01T06:28:00;-5.40;99.90
14409;DHT22;7289;50.706;4.992;2023-03-01T06:30:29;-5.30;99.90
14409;DHT22;7289;50.706;4.992;2023-03-01T06:32:57;-5.20;99.90
14409;DHT22;7289;50.706;4.992;2023-03-01T06:35:30;-5.20;99.90
14409;DHT22;7289;50.706;4.992;2023-03-01T06:38:00;-5.10;99.90
14409;DHT22;7289;50.706;4.992;2023-03-01T06:40:29;-5.10;99.90
14409;DHT22;7289;50.706;4.992;2023-03-01T06:42:59;-5.10;99.90
14409;DHT22;7289;50.706;4.992;2023-03-01T06:45:27;-5.20;99.90
14409;DHT22;7289;50.706;4.992;2023-03-01T06:48:03;-5.10;99.90
14409;DHT22;7289;50.706;4.992;2023-03-01T06:50:32;-5.10;99.90
14409;DHT22;7289;50.706;4.992;2023-03-01T06:53:00;-5.00;99.90
14409;DHT22;7289;50.706;4.992;2023-03-01T06:55:29;-5.00;99.90
14409;DHT22;7289;50.706;4.992;2023-03-01T06:58:00;-4.90;99.90
14409;DHT22;7289;50.706;4.992;2023-03-01T07:00:29;-4.70;99.90
14409;DHT22;7289;50.706;4.992;2023-03-01T07:02:59;-4.70;99.90
14409;DHT22;7289;50.706;4.992;2023-03-01T07:05:29;-4.60;99.90
14409;DHT22;7289;50.706;4.992;2023-03-01T07:07:57;-4.60;99.90
14409;DHT22;7289;50.706;4.992;2023-03-01T07:10:27;-4.50;99.90
14409;DHT22;7289;50.706;4.992;2023-03-01T07:12:56;-4.50;99.90
14409;DHT22;7289;50.706;4.992;2023-03-01T07:15:27;-4.50;99.90
14409;DHT22;7289;50.706;4.992;2023-03-01T07:17:56;-4.30;99.90
14409;DHT22;7289;50.706;4.992;2023-03-01T07:20:25;-4.30;99.90
14409;DHT22;7289;50.706;4.992;2023-03-01T07:22:54;-4.20;99.90
14409;DHT22;7289;50.706;4.992;2023-03-01T07:25:23;-4.20;99.90
14409;DHT22;7289;50.706;4.992;2023-03-01T07:27:52;-4.30;99.90
14409;DHT22;7289;50.706;4.992;2023-03-01T07:30:21;-4.30;99.90
14409;DHT22;7289;50.706;4.992;2023-03-01T07:32:54;-4.30;99.90
14409;DHT22;7289;50.706;4.992;2023-03-01T07:35:24;-4.30;99.90
14409;DHT22;7289;50.706;4.992;2023-03-01T07:37:53;-4.20;99.90
14409;DHT22;7289;50.706;4.992;2023-03-01T07:40:22;-4.10;99.90
14409;DHT22;7289;50.706;4.992;2023-03-01T07:42:55;-3.90;99.90
14409;DHT22;7289;50.706;4.992;2023-03-01T07:45:24;-3.70;99.90
14409;DHT22;7289;50.706;4.992;2023-03-01T07:47:54;-3.60;99.90
14409;DHT22;7289;50.706;4.992;2023-03-01T07:50:22;-3.50;99.90
14409;DHT22;7289;50.706;4.992;2023-03-01T07:52:51;-3.40;99.90
14409;DHT22;7289;50.706;4.992;2023-03-01T07:55:19;-3.30;99.90
14409;DHT22;7289;50.706;4.992;2023-03-01T07:57:48;-3.20;99.90
14409;DHT22;7289;50.706;4.992;2023-03-01T08:00:17;-3.10;99.90
14409;DHT22;7289;50.706;4.992;2023-03-01T08:02:45;-3.00;99.90
14409;DHT22;7289;50.706;4.992;2023-03-01T08:05:15;-3.00;99.90
14409;DHT22;7289;50.706;4.992;2023-03-01T08:07:44;-2.90;99.90
14409;DHT22;7289;50.706;4.992;2023-03-01T08:10:12;-2.80;99.90
14409;DHT22;7289;50.706;4.992;2023-03-01T08:12:40;-2.70;99.90
14409;DHT22;7289;50.706;4.992;2023-03-01T08:15:09;-2.70;99.90
14409;DHT22;7289;50.706;4.992;2023-03-01T08:17:38;-2.60;99.90
14409;DHT22;7289;50.706;4.992;2023-03-01T08:20:07;-2.50;99.90
14409;DHT22;7289;50.706;4.992;2023-03-01T08:22:40;-2.30;99.90
14409;DHT22;7289;50.706;4.992;2023-03-01T08:25:09;-2.00;99.90
14409;DHT22;7289;50.706;4.992;2023-03-01T08:27:37;-1.90;99.90
14409;DHT22;7289;50.706;4.992;2023-03-01T08:30:07;-1.80;99.90
14409;DHT22;7289;50.706;4.992;2023-03-01T08:32:36;-1.60;99.90
14409;DHT22;7289;50.706;4.992;2023-03-01T08:35:06;-1.60;99.90
14409;DHT22;7289;50.706;4.992;2023-03-01T08:37:34;-1.60;99.90
14409;DHT22;7289;50.706;4.992;2023-03-01T08:40:06;-1.40;99.90
14409;DHT22;7289;50.706;4.992;2023-03-01T08:42:36;-1.50;99.90
14409;DHT22;7289;50.706;4.992;2023-03-01T08:45:06;-1.40;99.90
14409;DHT22;7289;50.706;4.992;2023-03-01T08:47:34;-1.30;99.90
14409;DHT22;7289;50.706;4.992;2023-03-01T08:50:03;-1.20;99.90
14409;DHT22;7289;50.706;4.992;2023-03-01T08:52:32;-1.10;99.90
14409;DHT22;7289;50.706;4.992;2023-03-01T08:55:00;-1.00;99.90
14409;DHT22;7289;50.706;4.992;2023-03-01T08:57:31;-1.00;99.90
14409;DHT22;7289;50.706;4.992;2023-03-01T08:59:59;-1.00;99.90
14409;DHT22;7289;50.706;4.992;2023-03-01T09:02:28;-0.90;99.90
14409;DHT22;7289;50.706;4.992;2023-03-01T09:04:56;-0.90;99.90
14409;DHT22;7289;50.706;4.992;2023-03-01T09:07:25;-0.80;99.90
14409;DHT22;7289;50.706;4.992;2023-03-01T09:09:55;-0.60;99.90
14409;DHT22;7289;50.706;4.992;2023-03-01T09:12:23;-0.60;99.90
14409;DHT22;7289;50.706;4.992;2023-03-01T09:14:57;-0.40;99.90
14409;DHT22;7289;50.706;4.992;2023-03-01T09:17:25;-0.20;99.90
14409;DHT22;7289;50.706;4.992;2023-03-01T09:19:54;-0.10;99.90
14409;DHT22;7289;50.706;4.992;2023-03-01T09:22:23;0.00;99.90
14409;DHT22;7289;50.706;4.992;2023-03-01T09:24:51;0.20;99.90
14409;DHT22;7289;50.706;4.992;2023-03-01T09:27:20;0.20;99.90
14409;DHT22;7289;50.706;4.992;2023-03-01T09:29:52;0.20;99.90
14409;DHT22;7289;50.706;4.992;2023-03-01T09:32:21;0.10;99.90
14409;DHT22;7289;50.706;4.992;2023-03-01T09:34:52;0.20;99.90
14409;DHT22;7289;50.706;4.992;2023-03-01T09:37:32;0.30;99.90
14409;DHT22;7289;50.706;4.992;2023-03-01T09:40:01;0.40;99.90
14409;DHT22;7289;50.706;4.992;2023-03-01T09:42:32;0.50;99.90
14409;DHT22;7289;50.706;4.992;2023-03-01T09:45:04;0.80;99.90
14409;DHT22;7289;50.706;4.992;2023-03-01T09:47:35;1.10;99.90
14409;DHT22;7289;50.706;4.992;2023-03-01T09:50:09;1.10;99.90
14409;DHT22;7289;50.706;4.992;2023-03-01T09:52:41;1.20;99.90
14409;DHT22;7289;50.706;4.992;2023-03-01T09:55:12;1.50;99.90
14409;DHT22;7289;50.706;4.992;2023-03-01T09:57:46;1.50;99.90
14409;DHT22;7289;50.706;4.992;2023-03-01T10:00:32;1.60;99.90
14409;DHT22;7289;50.706;4.992;2023-03-01T10:03:12;1.80;99.90
14409;DHT22;7289;50.706;4.992;2023-03-01T10:05:50;1.80;99.90
14409;DHT22;7289;50.706;4.992;2023-03-01T10:08:31;1.90;99.90
14409;DHT22;7289;50.706;4.992;2023-03-01T10:11:04;1.90;99.90
14409;DHT22;7289;50.706;4.992;2023-03-01T10:13:40;2.10;99.90
14409;DHT22;7289;50.706;4.992;2023-03-01T10:16:13;2.40;99.90
14409;DHT22;7289;50.706;4.992;2023-03-01T10:18:47;2.60;99.90
14409;DHT22;7289;50.706;4.992;2023-03-01T10:21:20;2.80;99.90
14409;DHT22;7289;50.706;4.992;2023-03-01T10:23:50;2.70;99.90
14409;DHT22;7289;50.706;4.992;2023-03-01T10:26:48;2.70;99.90
14409;DHT22;7289;50.706;4.992;2023-03-01T10:29:21;2.80;99.90
14409;DHT22;7289;50.706;4.992;2023-03-01T10:31:53;3.00;99.90
14409;DHT22;7289;50.706;4.992;2023-03-01T10:34:28;3.10;99.90
14409;DHT22;7289;50.706;4.992;2023-03-01T10:36:59;2.90;99.90
14409;DHT22;7289;50.706;4.992;2023-03-01T10:39:29;2.90;99.90
14409;DHT22;7289;50.706;4.992;2023-03-01T10:42:00;3.10;99.90
14409;DHT22;7289;50.706;4.992;2023-03-01T10:44:38;3.00;99.90
14409;DHT22;7289;50.706;4.992;2023-03-01T10:47:14;3.20;99.90
14409;DHT22;7289;50.706;4.992;2023-03-01T10:49:55;3.20;99.90
14409;DHT22;7289;50.706;4.992;2023-03-01T10:52:26;3.30;99.80
14409;DHT22;7289;50.706;4.992;2023-03-01T10:54:57;3.20;99.90
14409;DHT22;7289;50.706;4.992;2023-03-01T10:57:36;3.10;99.90
14409;DHT22;7289;50.706;4.992;2023-03-01T11:00:21;3.30;99.90
14409;DHT22;7289;50.706;4.992;2023-03-01T11:03:02;3.50;99.80
14409;DHT22;7289;50.706;4.992;2023-03-01T11:05:32;3.70;99.80
14409;DHT22;7289;50.706;4.992;2023-03-01T11:08:02;3.60;99.30
14409;DHT22;7289;50.706;4.992;2023-03-01T11:10:34;3.70;99.10
14409;DHT22;7289;50.706;4.992;2023-03-01T11:13:07;3.70;99.10
14409;DHT22;7289;50.706;4.992;2023-03-01T11:15:36;3.70;99.10
14409;DHT22;7289;50.706;4.992;2023-03-01T11:18:04;4.00;99.30
14409;DHT22;7289;50.706;4.992;2023-03-01T11:20:46;4.30;99.00
14409;DHT22;7289;50.706;4.992;2023-03-01T11:23:16;4.70;98.30
14409;DHT22;7289;50.706;4.992;2023-03-01T11:25:49;4.60;97.60
14409;DHT22;7289;50.706;4.992;2023-03-01T11:28:20;4.60;97.60
14409;DHT22;7289;50.706;4.992;2023-03-01T11:30:53;4.60;97.70
14409;DHT22;7289;50.706;4.992;2023-03-01T11:33:39;4.50;97.30
14409;DHT22;7289;50.706;4.992;2023-03-01T11:36:16;4.80;97.60
14409;DHT22;7289;50.706;4.992;2023-03-01T11:38:45;4.80;95.70
14409;DHT22;7289;50.706;4.992;2023-03-01T11:41:16;4.80;95.30
14409;DHT22;7289;50.706;4.992;2023-03-01T11:43:50;4.80;95.30
14409;DHT22;7289;50.706;4.992;2023-03-01T11:46:34;4.80;96.00
14409;DHT22;7289;50.706;4.992;2023-03-01T11:52:11;5.20;95.20
14409;DHT22;7289;50.706;4.992;2023-03-01T11:54:49;5.00;95.20
14409;DHT22;7289;50.706;4.992;2023-03-01T11:57:42;4.90;95.50
14409;DHT22;7289;50.706;4.992;2023-03-01T12:00:22;5.10;95.20
14409;DHT22;7289;50.706;4.992;2023-03-01T12:03:28;5.10;95.80
14409;DHT22;7289;50.706;4.992;2023-03-01T12:06:18;5.10;95.50
14409;DHT22;7289;50.706;4.992;2023-03-01T12:09:02;5.40;95.10
14409;DHT22;7289;50.706;4.992;2023-03-01T12:11:42;5.60;94.70
14409;DHT22;7289;50.706;4.992;2023-03-01T12:14:30;5.50;94.00
14409;DHT22;7289;50.706;4.992;2023-03-01T12:17:12;5.50;94.20
14409;DHT22;7289;50.706;4.992;2023-03-01T12:19:58;5.40;93.50
14409;DHT22;7289;50.706;4.992;2023-03-01T12:22:31;5.40;93.70
14409;DHT22;7289;50.706;4.992;2023-03-01T12:25:22;5.30;93.80
14409;DHT22;7289;50.706;4.992;2023-03-01T12:28:08;5.30;93.80
14409;DHT22;7289;50.706;4.992;2023-03-01T12:31:06;5.20;93.60
14409;DHT22;7289;50.706;4.992;2023-03-01T12:33:45;5.20;94.10
14409;DHT22;7289;50.706;4.992;2023-03-01T12:36:41;5.30;93.80
14409;DHT22;7289;50.706;4.992;2023-03-01T12:39:28;5.40;93.90
14409;DHT22;7289;50.706;4.992;2023-03-01T12:42:07;5.50;93.10
14409;DHT22;7289;50.706;4.992;2023-03-01T12:44:53;5.70;93.70
14409;DHT22;7289;50.706;4.992;2023-03-01T12:47:41;5.80;93.20
14409;DHT22;7289;50.706;4.992;2023-03-01T12:50:18;5.90;93.50
14409;DHT22;7289;50.706;4.992;2023-03-01T12:52:50;5.90;93.00
14409;DHT22;7289;50.706;4.992;2023-03-01T12:55:28;5.90;92.30
14409;DHT22;7289;50.706;4.992;2023-03-01T12:58:05;5.80;92.10
14409;DHT22;7289;50.706;4.992;2023-03-01T13:00:40;5.60;92.90
14409;DHT22;7289;50.706;4.992;2023-03-01T13:03:19;5.70;92.50
14409;DHT22;7289;50.706;4.992;2023-03-01T13:06:02;5.80;92.50
14409;DHT22;7289;50.706;4.992;2023-03-01T13:08:38;5.90;91.60
14409;DHT22;7289;50.706;4.992;2023-03-01T13:11:16;5.90;92.30
14409;DHT22;7289;50.706;4.992;2023-03-01T13:13:47;5.90;91.60
14409;DHT22;7289;50.706;4.992;2023-03-01T13:16:39;5.90;92.10
14409;DHT22;7289;50.706;4.992;2023-03-01T13:19:13;6.00;91.90
14409;DHT22;7289;50.706;4.992;2023-03-01T13:21:43;6.00;91.70
14409;DHT22;7289;50.706;4.992;2023-03-01T13:24:33;6.10;90.90
14409;DHT22;7289;50.706;4.992;2023-03-01T13:27:21;6.20;91.00
14409;DHT22;7289;50.706;4.992;2023-03-01T13:29:54;6.20;91.40
14409;DHT22;7289;50.706;4.992;2023-03-01T13:32:25;6.20;91.80
14409;DHT22;7289;50.706;4.992;2023-03-01T13:35:40;6.30;91.20
14409;DHT22;7289;50.706;4.992;2023-03-01T13:38:36;6.10;90.20
14409;DHT22;7289;50.706;4.992;2023-03-01T13:41:06;6.10;90.40
14409;DHT22;7289;50.706;4.992;2023-03-01T13:43:36;6.10;90.80
14409;DHT22;7289;50.706;4.992;2023-03-01T13:46:11;6.20;90.70
14409;DHT22;7289;50.706;4.992;2023-03-01T13:48:41;6.20;90.70
14409;DHT22;7289;50.706;4.992;2023-03-01T13:51:12;6.30;90.50
14409;DHT22;7289;50.706;4.992;2023-03-01T13:53:42;6.30;90.10
14409;DHT22;7289;50.706;4.992;2023-03-01T13:56:13;6.40;89.70
14409;DHT22;7289;50.706;4.992;2023-03-01T13:58:51;6.20;89.30
14409;DHT22;7289;50.706;4.992;2023-03-01T14:01:27;6.20;90.40
14409;DHT22;7289;50.706;4.992;2023-03-01T14:03:57;6.30;90.60
14409;DHT22;7289;50.706;4.992;2023-03-01T14:06:27;6.40;90.40
14409;DHT22;7289;50.706;4.992;2023-03-01T14:09:17;6.40;91.00
14409;DHT22;7289;50.706;4.992;2023-03-01T14:11:59;6.60;90.90
14409;DHT22;7289;50.706;4.992;2023-03-01T14:14:39;6.60;90.00
14409;DHT22;7289;50.706;4.992;2023-03-01T14:20:11;6.50;90.00
14409;DHT22;7289;50.706;4.992;2023-03-01T14:22:41;6.40;90.00
14409;DHT22;7289;50.706;4.992;2023-03-01T14:25:20;6.40;89.90
14409;DHT22;7289;50.706;4.992;2023-03-01T14:28:01;6.40;90.40
14409;DHT22;7289;50.706;4.992;2023-03-01T14:30:35;6.60;90.30
14409;DHT22;7289;50.706;4.992;2023-03-01T14:33:17;6.40;89.90
14409;DHT22;7289;50.706;4.992;2023-03-01T14:35:56;6.40;90.20
14409;DHT22;7289;50.706;4.992;2023-03-01T14:38:32;6.50;90.20
14409;DHT22;7289;50.706;4.992;2023-03-01T14:41:03;6.50;90.20
14409;DHT22;7289;50.706;4.992;2023-03-01T14:43:33;6.30;89.70
14409;DHT22;7289;50.706;4.992;2023-03-01T14:46:02;6.30;90.40
14409;DHT22;7289;50.706;4.992;2023-03-01T14:48:32;6.30;90.40
14409;DHT22;7289;50.706;4.992;2023-03-01T14:51:00;6.50;90.30
14409;DHT22;7289;50.706;4.992;2023-03-01T14:53:29;6.40;89.90
14409;DHT22;7289;50.706;4.992;2023-03-01T14:56:16;6.40;89.80
14409;DHT22;7289;50.706;4.992;2023-03-01T14:58:46;6.30;90.50
14409;DHT22;7289;50.706;4.992;2023-03-01T15:01:17;6.40;90.90
14409;DHT22;7289;50.706;4.992;2023-03-01T15:03:48;6.40;89.60
14409;DHT22;7289;50.706;4.992;2023-03-01T15:06:19;6.40;90.40
14409;DHT22;7289;50.706;4.992;2023-03-01T15:08:50;6.40;89.10
14409;DHT22;7289;50.706;4.992;2023-03-01T15:11:22;6.40;89.60
14409;DHT22;7289;50.706;4.992;2023-03-01T15:13:52;6.40;90.00
14409;DHT22;7289;50.706;4.992;2023-03-01T15:16:23;6.30;89.00
14409;DHT22;7289;50.706;4.992;2023-03-01T15:18:55;6.30;89.50
14409;DHT22;7289;50.706;4.992;2023-03-01T15:21:26;6.30;90.00
14409;DHT22;7289;50.706;4.992;2023-03-01T15:24:00;6.30;90.30
14409;DHT22;7289;50.706;4.992;2023-03-01T15:26:33;6.30;89.70
14409;DHT22;7289;50.706;4.992;2023-03-01T15:29:03;6.30;90.00
14409;DHT22;7289;50.706;4.992;2023-03-01T15:31:32;6.20;89.90
14409;DHT22;7289;50.706;4.992;2023-03-01T15:34:21;6.20;90.50
14409;DHT22;7289;50.706;4.992;2023-03-01T15:36:51;6.00;90.30
14409;DHT22;7289;50.706;4.992;2023-03-01T15:39:35;6.00;90.60
14409;DHT22;7289;50.706;4.992;2023-03-01T15:42:07;6.00;90.20
14409;DHT22;7289;50.706;4.992;2023-03-01T15:44:39;5.90;88.30
14409;DHT22;7289;50.706;4.992;2023-03-01T15:47:26;5.90;88.80
14409;DHT22;7289;50.706;4.992;2023-03-01T15:49:58;5.90;90.00
14409;DHT22;7289;50.706;4.992;2023-03-01T15:52:29;6.00;89.50
14409;DHT22;7289;50.706;4.992;2023-03-01T15:55:00;5.90;88.50
14409;DHT22;7289;50.706;4.992;2023-03-01T15:57:30;5.80;89.10
14409;DHT22;7289;50.706;4.992;2023-03-01T15:59:58;5.70;88.80
14409;DHT22;7289;50.706;4.992;2023-03-01T16:02:26;5.70;89.80
14409;DHT22;7289;50.706;4.992;2023-03-01T16:04:57;5.70;90.10
14409;DHT22;7289;50.706;4.992;2023-03-01T16:07:25;5.70;90.10
14409;DHT22;7289;50.706;4.992;2023-03-01T16:09:55;5.80;89.60
14409;DHT22;7289;50.706;4.992;2023-03-01T16:12:23;5.80;90.20
14409;DHT22;7289;50.706;4.992;2023-03-01T16:14:52;5.70;90.20
14409;DHT22;7289;50.706;4.992;2023-03-01T16:17:20;5.60;90.30
14409;DHT22;7289;50.706;4.992;2023-03-01T16:19:49;5.50;90.50
14409;DHT22;7289;50.706;4.992;2023-03-01T16:22:19;5.40;90.10
14409;DHT22;7289;50.706;4.992;2023-03-01T16:24:52;5.40;90.20
14409;DHT22;7289;50.706;4.992;2023-03-01T16:27:20;5.50;90.50
14409;DHT22;7289;50.706;4.992;2023-03-01T16:29:49;5.40;90.60
14409;DHT22;7289;50.706;4.992;2023-03-01T16:32:18;5.30;90.70